Time;durP1;ratioP1;P1;durP2;ratioP2;P2;SDS_P1;SDS_P2;PMS_P1;PMS_P2;Temp;Humidity;BMP_temperature;BMP_pressure;BME280_temperature;BME280_humidity;BME280_pressure;Samples;Min_cycle;Max_cycle;Signal;HPM_P1;HPM_P2
2023/08/15 16:36:06;;;;;;;3.00;1.58;;;25.00;99.90;;;;;;5112929;27;20372;-87
2023/08/15 16:38:31;;;;;;;3.58;1.95;;;25.00;99.90;;;;;;5074250;28;20050;-87
2023/08/15 16:40:57;;;;;;;4.53;1.65;;;25.00;99.90;;;;;;5073823;28;20032;-87
2023/08/15 16:43:25;;;;;;;4.47;1.67;;;25.10;99.90;;;;;;5073700;28;20077;-88
2023/08/15 16:45:54;;;;;;;3.72;1.95;;;25.30;99.90;;;;;;5059201;28;20033;-95
2023/08/15 16:48:33;;;;;;;5.72;2.13;;;25.40;99.90;;;;;;5077007;28;20040;-94
2023/08/15 16:51:04;;;;;;;2.95;1.60;;;25.50;99.90;;;;;;5061124;28;20035;-94
2023/08/15 16:53:29;;;;;;;3.33;1.80;;;25.70;99.90;;;;;;5062013;28;20025;-92
2023/08/15 16:55:55;;;;;;;3.10;1.70;;;25.80;99.90;;;;;;5074655;28;20027;-91
2023/08/15 16:58:21;;;;;;;3.63;2.03;;;25.90;99.90;;;;;;5058307;28;20119;-92
2023/08/15 17:00:47;;;;;;;3.78;1.70;;;26.00;99.90;;;;;;5058907;28;20383;-90
2023/08/15 17:03:13;;;;;;;2.97;1.80;;;26.00;99.90;;;;;;5074449;28;20027;-90
2023/08/15 17:05:38;;;;;;;3.38;1.70;;;26.10;99.90;;;;;;5057792;28;20094;-91
2023/08/15 17:08:07;;;;;;;2.63;1.70;;;26.10;99.90;;;;;;5074164;28;20059;-90
2023/08/15 17:10:33;;;;;;;5.95;2.60;;;26.10;99.90;;;;;;5092427;28;20070;-90
2023/08/15 17:12:59;;;;;;;5.45;2.13;;;26.10;99.90;;;;;;5058176;28;20016;-92
2023/08/15 17:15:26;;;;;;;4.47;2.00;;;26.10;99.90;;;;;;5041875;28;20032;-93
2023/08/15 17:17:53;;;;;;;4.40;1.83;;;26.10;99.90;;;;;;5073993;28;20020;-94
2023/08/15 17:20:18;;;;;;;3.75;2.05;;;26.10;99.90;;;;;;5057934;28;20062;-96
2023/08/15 17:22:47;;;;;;;3.85;1.92;;;26.10;99.90;;;;;;5074646;28;20028;-92
2023/08/15 17:35:51;;;;;;;3.72;2.05;;;26.00;99.90;;;;;;5089224;28;20099;-93
2023/08/15 17:38:17;;;;;;;3.55;2.42;;;26.00;99.90;;;;;;5073577;28;20127;-92
2023/08/15 17:40:43;;;;;;;4.15;2.35;;;25.90;99.90;;;;;;5073675;28;20086;-92
2023/08/15 17:46:56;;;;;;;3.45;1.98;;;25.90;99.90;;;;;;5083001;28;20048;-94
2023/08/15 17:49:22;;;;;;;3.45;1.95;;;25.90;99.90;;;;;;5076894;28;20367;-94
2023/08/15 17:51:50;;;;;;;3.67;1.80;;;25.90;99.90;;;;;;5060139;28;20029;-94
2023/08/15 17:54:16;;;;;;;3.47;2.00;;;25.90;99.90;;;;;;5076441;28;20021;-93
2023/08/15 17:56:41;;;;;;;5.90;2.30;;;25.90;99.90;;;;;;5076604;28;20025;-92
2023/08/15 17:59:10;;;;;;;4.63;2.00;;;25.90;99.90;;;;;;5076667;28;20128;-92
2023/08/15 18:01:36;;;;;;;2.67;1.83;;;25.90;99.90;;;;;;5078805;28;20472;-91
2023/08/15 18:04:05;;;;;;;3.15;1.55;;;25.80;99.90;;;;;;5076285;28;20134;-90
2023/08/15 18:06:35;;;;;;;4.72;1.73;;;25.80;99.90;;;;;;5069330;28;20057;-92
2023/08/15 18:09:01;;;;;;;7.03;2.03;;;25.80;99.90;;;;;;5076217;28;20365;-88
2023/08/15 18:11:27;;;;;;;4.03;1.92;;;25.80;99.90;;;;;;5076572;28;20020;-90
2023/08/15 18:17:29;;;;;;;4.30;1.92;;;25.70;99.90;;;;;;5077492;28;20487;-90
2023/08/15 18:19:55;;;;;;;6.45;1.60;;;25.60;99.90;;;;;;5077322;28;20033;-92
2023/08/15 18:22:21;;;;;;;5.93;2.03;;;25.60;99.90;;;;;;5076426;28;20032;-93
2023/08/15 18:24:46;;;;;;;5.18;1.85;;;25.50;99.90;;;;;;5044183;28;20127;-93
2023/08/15 18:27:12;;;;;;;4.85;2.15;;;25.50;99.90;;;;;;5044977;28;20526;-91
2023/08/15 18:29:38;;;;;;;4.55;1.80;;;25.50;99.90;;;;;;5064623;28;20541;-91
2023/08/15 18:32:04;;;;;;;6.13;2.22;;;25.40;99.90;;;;;;5073479;28;20043;-90
2023/08/15 18:34:29;;;;;;;5.72;2.05;;;25.40;99.90;;;;;;5064211;28;20031;-91
2023/08/15 18:37:13;;;;;;;3.58;1.90;;;25.30;99.90;;;;;;5098233;28;20021;-91
2023/08/15 18:39:39;;;;;;;5.05;1.92;;;25.30;99.90;;;;;;5096699;28;20020;-89
2023/08/15 18:42:04;;;;;;;4.57;2.10;;;25.30;99.90;;;;;;5089386;28;20021;-89
2023/08/15 18:44:30;;;;;;;6.38;2.10;;;25.20;99.90;;;;;;5063624;28;20036;-92
2023/08/15 18:46:59;;;;;;;5.13;1.80;;;25.20;99.90;;;;;;5077861;28;20032;-91
2023/08/15 18:49:25;;;;;;;7.60;2.00;;;25.10;99.90;;;;;;5061165;28;20029;-90
2023/08/15 18:51:51;;;;;;;4.90;1.75;;;25.10;99.90;;;;;;5076404;28;20032;-90
2023/08/15 18:54:19;;;;;;;6.20;2.03;;;25.10;99.90;;;;;;5059598;28;20051;-90
2023/08/15 18:56:46;;;;;;;5.25;2.22;;;25.00;99.90;;;;;;5043183;28;20115;-90
2023/08/15 18:59:12;;;;;;;5.22;1.90;;;25.00;99.90;;;;;;5058602;28;20017;-91
2023/08/15 19:01:40;;;;;;;7.43;2.03;;;24.90;99.90;;;;;;5059178;28;20039;-94
2023/08/15 19:04:11;;;;;;;4.50;1.75;;;24.90;99.90;;;;;;5075136;28;20021;-94
2023/08/15 19:06:54;;;;;;;6.50;1.88;;;24.90;99.90;;;;;;5075942;28;20103;-94
2023/08/15 19:09:24;;;;;;;7.63;2.53;;;24.80;99.90;;;;;;5043915;28;20024;-94
2023/08/15 19:12:20;;;;;;;6.03;2.00;;;24.80;99.90;;;;;;5056653;28;20024;-93
2023/08/15 19:14:47;;;;;;;6.88;1.98;;;24.70;99.90;;;;;;5042770;28;20036;-91
2023/08/15 19:17:15;;;;;;;5.53;2.10;;;24.70;99.90;;;;;;5054281;28;20029;-94
2023/08/15 19:19:41;;;;;;;6.30;2.13;;;24.60;99.90;;;;;;5056724;28;20021;-91
2023/08/15 19:22:19;;;;;;;;;;;;;;;;;;;;;
2023/08/15 19:24:50;;;;;;;4.68;1.92;;;24.50;99.90;;;;;;5066286;28;20473;-90
2023/08/15 19:27:16;;;;;;;5.00;2.17;;;24.50;99.90;;;;;;5045350;28;20033;-91
2023/08/15 19:29:42;;;;;;;4.30;2.08;;;24.40;99.90;;;;;;5062364;28;20078;-91
2023/08/15 19:32:08;;;;;;;6.47;2.08;;;24.40;99.90;;;;;;5059602;28;20446;-90
2023/08/15 19:34:49;;;;;;;5.93;2.78;;;24.30;99.90;;;;;;5076422;28;20126;-94
2023/08/15 19:37:15;;;;;;;5.72;2.30;;;24.30;99.90;;;;;;5070147;28;20020;-92
2023/08/15 19:39:45;;;;;;;5.43;2.25;;;24.20;99.90;;;;;;5049168;28;20035;-92
2023/08/15 19:42:13;;;;;;;5.72;2.20;;;24.20;99.90;;;;;;5068161;28;20047;-93
2023/08/15 19:44:39;;;;;;;5.95;2.15;;;24.20;99.90;;;;;;5053622;28;20052;-92
2023/08/15 19:47:07;;;;;;;5.32;2.10;;;24.20;99.90;;;;;;5077846;28;20107;-91
2023/08/15 19:49:35;;;;;;;9.45;2.40;;;24.10;99.90;;;;;;5068592;28;20363;-91
2023/08/15 19:52:01;;;;;;;4.03;1.60;;;24.10;99.90;;;;;;5076817;28;20019;-91
2023/08/15 19:54:29;;;;;;;5.53;1.73;;;24.00;99.90;;;;;;5073473;28;20017;-92
2023/08/15 19:57:21;;;;;;;4.28;1.95;;;24.00;99.90;;;;;;5069796;28;20033;-93
2023/08/15 19:59:53;;;;;;;6.18;2.58;;;23.90;99.90;;;;;;5070222;28;20123;-95
2023/08/15 20:02:39;;;;;;;;;;;;;;;;;;;;;
2023/08/15 20:05:06;;;;;;;4.25;1.88;;;23.90;99.90;;;;;;5077366;28;20054;-95
2023/08/15 20:10:32;;;;;;;4.95;1.80;;;23.80;99.90;;;;;;5075357;28;20442;-92
2023/08/15 20:13:01;;;;;;;4.55;1.90;;;23.70;99.90;;;;;;5071086;28;20028;-92
2023/08/15 20:15:27;;;;;;;6.28;1.95;;;23.70;99.90;;;;;;5076846;28;20069;-90
2023/08/15 20:17:53;;;;;;;5.90;2.03;;;23.70;99.90;;;;;;5061566;28;20028;-92
2023/08/15 20:20:20;;;;;;;10.05;2.03;;;23.70;99.90;;;;;;5060521;28;20039;-90
2023/08/15 20:22:46;;;;;;;3.50;1.60;;;23.60;99.90;;;;;;5061232;28;20039;-91
2023/08/15 20:25:12;;;;;;;5.43;1.70;;;23.60;99.90;;;;;;5076722;28;20024;-91
2023/08/15 20:27:38;;;;;;;4.15;1.52;;;23.50;99.90;;;;;;5060460;28;20054;-90
2023/08/15 20:30:04;;;;;;;6.63;2.38;;;23.50;99.90;;;;;;5043613;28;20035;-91
2023/08/15 20:32:29;;;;;;;4.13;2.05;;;23.50;99.90;;;;;;5057044;28;20033;-90
2023/08/15 20:34:55;;;;;;;4.97;2.05;;;23.40;99.90;;;;;;5038814;28;20052;-91
2023/08/15 20:37:21;;;;;;;2.97;1.70;;;23.40;99.90;;;;;;5039397;28;20055;-90
2023/08/15 20:39:47;;;;;;;11.13;2.10;;;23.40;99.90;;;;;;5057998;28;20532;-90
2023/08/15 20:42:13;;;;;;;5.00;2.05;;;23.30;99.90;;;;;;5055590;28;20124;-91
2023/08/15 20:44:39;;;;;;;8.05;1.90;;;23.30;99.90;;;;;;5054002;28;20063;-90
2023/08/15 20:47:05;;;;;;;3.45;1.42;;;23.30;99.90;;;;;;5053531;28;20053;-90
2023/08/15 20:49:30;;;;;;;4.65;2.00;;;23.20;99.90;;;;;;5054819;28;20025;-91
2023/08/15 20:51:57;;;;;;;6.38;1.83;;;23.20;99.90;;;;;;5053910;28;20067;-91
2023/08/15 20:54:23;;;;;;;4.53;1.90;;;23.20;99.90;;;;;;5058503;28;20017;-91
2023/08/15 20:56:49;;;;;;;4.25;1.67;;;23.10;99.90;;;;;;5038634;28;20025;-90
2023/08/15 20:59:15;;;;;;;6.13;2.00;;;23.10;99.90;;;;;;5037985;28;20041;-91
2023/08/15 21:01:41;;;;;;;5.30;2.00;;;23.10;99.90;;;;;;5053281;28;20115;-91
2023/08/15 21:04:07;;;;;;;4.35;1.98;;;23.10;99.90;;;;;;5036317;28;20187;-90
2023/08/15 21:06:32;;;;;;;2.55;1.50;;;23.00;99.90;;;;;;5053383;28;20056;-90
2023/08/15 21:09:01;;;;;;;6.57;1.70;;;23.00;99.90;;;;;;5036577;28;20033;-90
2023/08/15 21:14:50;;;;;;;5.45;1.60;;;22.90;99.90;;;;;;5081738;28;20495;-91
2023/08/15 21:17:16;;;;;;;4.70;2.08;;;22.90;99.90;;;;;;5077610;28;20088;-91
2023/08/15 21:19:45;;;;;;;5.10;1.98;;;22.90;99.90;;;;;;5072562;28;20024;-91
2023/08/15 21:22:12;;;;;;;5.05;1.63;;;22.80;99.90;;;;;;5074491;28;20032;-92
2023/08/15 21:24:39;;;;;;;5.28;1.80;;;22.80;99.90;;;;;;5070906;28;20070;-92
2023/08/15 21:27:05;;;;;;;9.98;2.25;;;22.80;99.90;;;;;;5057870;28;20112;-92
2023/08/15 21:29:31;;;;;;;3.05;1.52;;;22.70;99.90;;;;;;5064472;28;20025;-91
2023/08/15 21:31:56;;;;;;;6.72;1.95;;;22.70;99.90;;;;;;5062775;28;20465;-91
2023/08/15 21:34:23;;;;;;;4.57;2.00;;;22.70;99.90;;;;;;5045681;28;20036;-91
2023/08/15 21:36:52;;;;;;;6.70;1.75;;;22.60;99.90;;;;;;5047245;28;20044;-95
2023/08/15 21:39:18;;;;;;;3.50;1.58;;;22.60;99.90;;;;;;5060521;28;20482;-96
2023/08/15 21:41:46;;;;;;;4.03;1.60;;;22.50;99.90;;;;;;5060896;28;20025;-96
2023/08/15 21:44:12;;;;;;;6.75;2.40;;;22.50;99.90;;;;;;5040141;28;20128;-96
2023/08/15 21:46:38;;;;;;;3.75;1.50;;;22.50;99.90;;;;;;5060524;28;20048;-96
2023/08/15 21:49:04;;;;;;;4.35;1.70;;;22.50;99.90;;;;;;5071133;28;20028;-96
2023/08/15 21:51:30;;;;;;;3.70;1.77;;;22.50;99.90;;;;;;5079719;28;20035;-96
2023/08/15 21:53:55;;;;;;;5.75;2.08;;;22.50;99.90;;;;;;5060180;28;20025;-91
2023/08/15 21:56:24;;;;;;;4.45;2.17;;;22.50;99.90;;;;;;5059226;28;20040;-91
2023/08/15 21:58:50;;;;;;;4.63;1.92;;;22.50;99.90;;;;;;5041908;28;20032;-92
2023/08/15 22:01:15;;;;;;;5.60;1.90;;;22.40;99.90;;;;;;5041805;28;20043;-91
2023/08/15 22:03:41;;;;;;;6.18;2.42;;;22.40;99.90;;;;;;5026540;28;20032;-92
2023/08/15 22:06:06;;;;;;;8.43;1.92;;;22.40;99.90;;;;;;5062175;28;20052;-91
2023/08/15 22:08:32;;;;;;;3.10;1.80;;;22.40;99.90;;;;;;5061429;28;20383;-92
2023/08/15 22:10:58;;;;;;;6.13;2.03;;;22.40;99.90;;;;;;5061376;28;20039;-91
2023/08/15 22:13:23;;;;;;;7.15;2.00;;;22.30;99.90;;;;;;5047070;28;20468;-91
2023/08/15 22:15:49;;;;;;;3.70;1.95;;;22.30;99.90;;;;;;5064902;28;20465;-91
2023/08/15 22:18:14;;;;;;;5.03;1.80;;;22.20;99.90;;;;;;5076114;28;20024;-92
2023/08/15 22:20:40;;;;;;;5.10;2.30;;;22.20;99.90;;;;;;5058868;28;20035;-90
2023/08/15 22:23:06;;;;;;;4.05;1.95;;;22.10;99.90;;;;;;5046061;28;20028;-90
2023/08/15 22:25:31;;;;;;;6.38;2.20;;;22.10;99.90;;;;;;5047698;28;20036;-92
2023/08/15 22:27:57;;;;;;;3.97;1.80;;;22.00;99.90;;;;;;5060133;28;20029;-92
2023/08/15 22:30:23;;;;;;;7.97;2.30;;;22.00;99.90;;;;;;5063990;28;20518;-91
2023/08/15 22:32:49;;;;;;;4.70;2.17;;;22.00;99.90;;;;;;5058671;28;20055;-91
2023/08/15 22:35:14;;;;;;;4.93;2.20;;;21.90;99.90;;;;;;5041964;28;20480;-91
2023/08/15 22:37:40;;;;;;;4.85;2.00;;;21.90;99.90;;;;;;5059563;28;20029;-91
2023/08/15 22:40:07;;;;;;;7.35;2.13;;;21.90;99.90;;;;;;5058195;28;20031;-92
2023/08/15 22:42:32;;;;;;;5.15;2.10;;;21.90;99.90;;;;;;5026023;28;20058;-89
2023/08/15 22:44:58;;;;;;;6.72;2.17;;;21.80;99.90;;;;;;5041837;28;20388;-91
2023/08/15 22:47:24;;;;;;;5.20;2.38;;;21.80;99.90;;;;;;5041702;28;20024;-91
2023/08/15 22:49:49;;;;;;;6.63;2.30;;;21.70;99.90;;;;;;5025427;28;20035;-91
2023/08/15 22:52:15;;;;;;;4.40;2.10;;;21.70;99.90;;;;;;5041425;28;20055;-92
2023/08/15 22:54:44;;;;;;;7.47;1.95;;;21.60;99.90;;;;;;5041900;28;20032;-91
2023/08/15 22:57:09;;;;;;;8.90;2.03;;;21.50;99.90;;;;;;5058668;28;20032;-91
2023/08/15 22:59:35;;;;;;;4.32;2.10;;;21.50;99.90;;;;;;5025522;28;20029;-91
2023/08/15 23:02:00;;;;;;;4.50;2.08;;;21.50;99.90;;;;;;5041922;28;20036;-91
2023/08/15 23:04:26;;;;;;;7.13;2.20;;;21.40;99.90;;;;;;5057995;28;20033;-91
2023/08/15 23:06:53;;;;;;;5.43;2.17;;;21.40;99.90;;;;;;5059687;28;20012;-92
2023/08/15 23:09:18;;;;;;;3.90;1.80;;;21.30;99.90;;;;;;5042658;28;20071;-92
2023/08/15 23:11:44;;;;;;;9.60;2.53;;;21.30;99.90;;;;;;5057942;28;20025;-92
2023/08/15 23:14:10;;;;;;;3.80;2.30;;;21.30;99.90;;;;;;5057659;28;20055;-92
2023/08/15 23:16:36;;;;;;;5.95;2.42;;;21.30;99.90;;;;;;5058286;28;20115;-92
2023/08/15 23:19:01;;;;;;;5.80;2.38;;;21.30;99.90;;;;;;5058459;28;20032;-91
2023/08/15 23:21:27;;;;;;;5.00;2.42;;;21.30;99.90;;;;;;5041634;28;20033;-93
2023/08/15 23:23:53;;;;;;;5.00;2.25;;;21.30;99.90;;;;;;5041272;28;20533;-92
2023/08/15 23:26:18;;;;;;;4.95;2.38;;;21.20;99.90;;;;;;5057743;28;20108;-93
2023/08/15 23:28:44;;;;;;;4.20;2.25;;;21.20;99.90;;;;;;5024873;28;20040;-92
2023/08/15 23:31:12;;;;;;;5.82;2.40;;;21.20;99.90;;;;;;5041656;28;20067;-92
2023/08/15 23:33:41;;;;;;;8.05;2.58;;;21.10;99.90;;;;;;5041287;28;20052;-92
2023/08/15 23:36:07;;;;;;;5.50;2.17;;;21.10;99.90;;;;;;5056991;28;20044;-91
2023/08/15 23:38:33;;;;;;;7.20;2.55;;;21.10;99.90;;;;;;5041315;28;20399;-91
2023/08/15 23:40:58;;;;;;;5.35;2.00;;;21.10;99.90;;;;;;5041575;28;20460;-92
2023/08/15 23:43:24;;;;;;;4.38;2.05;;;21.00;99.90;;;;;;5075728;28;20047;-92
2023/08/15 23:45:52;;;;;;;3.35;2.08;;;21.00;99.90;;;;;;5028815;28;20055;-91
2023/08/15 23:48:21;;;;;;;6.85;2.20;;;21.00;99.90;;;;;;5094314;28;20020;-93
2023/08/15 23:50:47;;;;;;;5.03;2.13;;;21.00;99.90;;;;;;5055221;28;20124;-91
2023/08/15 23:53:13;;;;;;;6.32;2.17;;;20.90;99.90;;;;;;5040938;28;20055;-91
2023/08/15 23:55:38;;;;;;;5.57;2.40;;;20.90;99.90;;;;;;5040938;28;20406;-92
2023/08/15 23:58:04;;;;;;;5.68;2.40;;;20.90;99.90;;;;;;5057295;28;20483;-92
